Time;durP1;ratioP1;P1;durP2;ratioP2;P2;SDS_P1;SDS_P2;PMS_P1;PMS_P2;Temp;Humidity;BMP_temperature;BMP_pressure;BME280_temperature;BME280_humidity;BME280_pressure;Samples;Min_cycle;Max_cycle;Signal;HPM_P1;HPM_P2
2022/12/08 22:08:06;;;;;;;23.35;17.30;;;2.80;99.90;;;;;;5167144;27;20307;-83
2022/12/08 22:10:33;;;;;;;29.17;16.80;;;2.70;99.90;;;;;;5141681;27;20177;-79
2022/12/08 22:13:00;;;;;;;20.90;16.23;;;2.70;99.90;;;;;;5135521;27;20201;-81
2022/12/08 22:15:29;;;;;;;26.45;16.35;;;2.70;99.90;;;;;;5117520;28;20456;-84
2022/12/08 22:17:57;;;;;;;24.02;18.42;;;2.70;99.90;;;;;;5123127;28;20178;-82
2022/12/08 22:20:24;;;;;;;26.13;16.98;;;2.80;99.90;;;;;;5123121;28;20186;-80
2022/12/08 22:22:51;;;;;;;24.52;18.00;;;2.90;99.90;;;;;;5129296;28;20185;-81
2022/12/08 22:25:19;;;;;;;26.45;18.90;;;2.90;99.90;;;;;;5122194;28;20193;-76
2022/12/08 22:27:46;;;;;;;25.15;17.90;;;2.90;99.90;;;;;;5116500;28;20250;-84
2022/12/08 22:30:13;;;;;;;27.73;17.50;;;2.90;99.90;;;;;;5123759;28;20178;-80
2022/12/08 22:32:41;;;;;;;26.20;16.33;;;2.90;99.90;;;;;;5122434;28;20206;-77
2022/12/08 22:35:09;;;;;;;23.50;17.58;;;3.00;99.90;;;;;;5116623;28;20204;-79
2022/12/08 22:37:36;;;;;;;33.28;19.35;;;3.00;99.90;;;;;;5122953;28;20332;-81
2022/12/08 22:40:03;;;;;;;32.40;18.17;;;3.10;99.90;;;;;;5116689;28;20213;-76
2022/12/08 22:42:31;;;;;;;24.45;17.15;;;2.90;99.90;;;;;;5125299;28;20190;-77
2022/12/08 22:44:58;;;;;;;23.73;17.80;;;2.90;99.90;;;;;;5131838;28;20185;-79
2022/12/08 22:47:25;;;;;;;24.85;18.23;;;2.80;99.90;;;;;;5127194;27;20205;-77
2022/12/08 22:49:52;;;;;;;26.92;18.48;;;2.70;99.90;;;;;;5123069;28;20213;-77
2022/12/08 22:52:19;;;;;;;20.40;17.13;;;2.70;99.90;;;;;;5120979;28;20201;-80
2022/12/08 22:54:46;;;;;;;25.23;18.42;;;2.70;99.90;;;;;;5115101;27;20332;-79
2022/12/08 22:57:13;;;;;;;23.73;17.85;;;2.70;99.90;;;;;;5126280;28;20201;-78
2022/12/08 22:59:42;;;;;;;26.33;18.40;;;2.70;99.90;;;;;;5130356;27;20186;-76
2022/12/08 23:02:09;;;;;;;22.70;17.55;;;2.70;99.90;;;;;;5127353;28;20185;-81
2022/12/08 23:04:36;;;;;;;22.70;16.95;;;2.60;99.90;;;;;;5134428;28;20205;-78
2022/12/08 23:07:06;;;;;;;25.55;17.60;;;2.70;99.90;;;;;;5131886;27;20217;-78
2022/12/08 23:09:33;;;;;;;21.98;16.73;;;2.70;99.90;;;;;;5153947;27;20188;-78
2022/12/08 23:12:00;;;;;;;22.23;16.67;;;2.60;99.90;;;;;;5141973;27;20210;-79
2022/12/08 23:14:27;;;;;;;29.02;17.88;;;2.80;99.90;;;;;;5153618;27;20264;-78
2022/12/08 23:16:55;;;;;;;23.50;15.45;;;2.90;99.90;;;;;;5154642;27;20339;-78
2022/12/08 23:19:22;;;;;;;24.95;16.85;;;2.90;99.90;;;;;;5146503;27;20244;-78
2022/12/08 23:21:49;;;;;;;27.77;16.65;;;2.90;99.90;;;;;;5149646;27;20206;-78
2022/12/08 23:24:16;;;;;;;30.10;18.02;;;3.00;99.90;;;;;;5132612;27;20235;-79
2022/12/08 23:26:43;;;;;;;25.70;15.70;;;3.00;99.90;;;;;;5132742;27;20275;-78
2022/12/08 23:29:10;;;;;;;29.00;16.15;;;3.10;99.90;;;;;;5146033;27;20470;-79
2022/12/08 23:31:38;;;;;;;27.20;16.95;;;3.10;99.90;;;;;;5140506;27;20208;-81
2022/12/08 23:34:07;;;;;;;18.48;15.10;;;3.10;99.90;;;;;;5121701;27;20221;-80
2022/12/08 23:36:34;;;;;;;28.45;16.80;;;3.10;99.90;;;;;;5137025;27;20201;-79
2022/12/08 23:39:01;;;;;;;25.52;15.02;;;3.10;99.90;;;;;;5140612;27;20223;-77
2022/12/08 23:41:28;;;;;;;20.42;14.23;;;3.10;99.90;;;;;;5135605;27;20251;-80
2022/12/08 23:43:55;;;;;;;23.83;16.70;;;3.10;99.90;;;;;;5124161;27;20232;-79
2022/12/08 23:46:23;;;;;;;22.40;16.58;;;3.10;99.90;;;;;;5138162;27;20249;-80
2022/12/08 23:48:50;;;;;;;26.30;16.67;;;3.00;99.90;;;;;;5146086;27;20200;-79
2022/12/08 23:51:22;;;;;;;25.73;16.42;;;3.00;99.90;;;;;;5135709;27;20184;-78
2022/12/08 23:53:49;;;;;;;24.50;15.63;;;3.10;99.90;;;;;;5128608;27;20206;-80
2022/12/08 23:56:17;;;;;;;33.22;16.90;;;3.10;99.90;;;;;;5141373;27;20257;-80
2022/12/08 23:58:45;;;;;;;24.52;16.08;;;3.00;99.90;;;;;;5140093;27;20221;-80
